• Join FlightAware (Why Join?)
  • Login
  • US Flag 
09:58PM EDT


 

Airport Tracker/Info


-or-


 

Live Flight TrackerFlight Track Log ✈ FLG4262 ✈ 17-Nov-2013 ✈ KDTW - KBGM

Flight Track Log - Related Links

Times and Time Zones

All times are in EST time to prevent confusion due to time zone crossing. See the FLG4262 flight status page for this flight to view local times or setup timezone preferences in your user account.

Time Position Orientation Groundspeed Altitude Reporting Facility
EST Latitude Longitude Course Direction KTS MPH feet Rate Location/Type
03:58PM 42.2050 -83.3528 172° South 139 160 1,400  Level Cleveland Center
04:00PM 42.1472 -83.3419 172° South 172 198 4,300 2,040 Climbing Cleveland Center
04:00PM 42.1433 -83.3406 165° South 164 189 4,600 1,560 Climbing Cleveland Center
04:00PM 42.1025 -83.3244 164° South 238 274 5,600 1,980 Climbing Cleveland Center
04:01PM 42.0761 -83.3047 151° Southeast 237 273 6,700 2,700 Climbing Cleveland Center
04:01PM 42.0711 -83.2411 96° East 324 373 8,400 2,820 Climbing Cleveland Center
04:02PM 42.0872 -83.1936 65° Northeast 312 359 9,600 1,860 Climbing Cleveland Center
04:02PM 42.1186 -83.1156 62° Northeast 356 410 10,500 1,440 Climbing Cleveland Center
04:03PM 42.1353 -83.0708 63° Northeast 355 409 11,100 1,680 Climbing Cleveland Center
04:04PM 42.1836 -82.9439 63° Northeast 381 438 12,900 1,140 Climbing Cleveland Center
04:05PM 42.2356 -82.8081 63° Northeast 406 467 13,500 960 Climbing Cleveland Center
04:06PM 42.2903 -82.6628 63° Northeast 432 497 14,900 1,320 Climbing Cleveland Center
04:07PM 42.3456 -82.5156 63° Northeast 439 505 16,300 1,620 Climbing Cleveland Center
04:08PM 42.3647 -82.3539 81° East 441 507 18,300 1,620 Climbing Cleveland Center
04:09PM 42.3586 -82.1919 93° East 435 501 19,700 1,380 Climbing Cleveland Center
04:10PM 42.3511 -82.0158 93° East 437 503 21,200 1,320 Climbing Cleveland Center
04:11PM 42.3442 -81.8500 93° East 437 503 22,500 1,320 Climbing Cleveland Center
04:12PM 42.3350 -81.6556 94° East 440 506 24,000 1,260 Climbing Cleveland Center
04:13PM 42.3269 -81.4875 94° East 443 510 25,200 1,140 Climbing Cleveland Center
04:14PM 42.3197 -81.3175 93° East 447 514 26,400 1,080 Climbing Cleveland Center
04:15PM 42.3111 -81.1517 94° East 442 509 27,500 780 Climbing Cleveland Center
04:16PM 42.3014 -80.9825 94° East 446 513 28,000 480 Climbing Cleveland Center
04:17PM 42.2928 -80.8047 94° East 463 533 28,500 480 Climbing Cleveland Center
04:18PM 42.2822 -80.6256 94° East 471 542 29,000 240 Climbing Cleveland Center
04:19PM 42.2731 -80.4403 94° East 485 558 29,000  Level Cleveland Center
04:20PM 42.2622 -80.2511 94° East 499 574 29,000  Level Cleveland Center
04:21PM 42.2508 -80.0578 94° East 509 586 29,000  Level Cleveland Center
04:22PM 42.2369 -79.8417 95° East 517 595 29,000  Level Cleveland Center
04:23PM 42.2244 -79.6447 95° East 525 604 29,000  Level Cleveland Center
04:24PM 42.2117 -79.4494 95° East 526 605 29,000 -60 Level Cleveland Center
04:25PM 42.1978 -79.2508 95° East 531 611 28,900 -540 Descending Cleveland Center
04:26PM 42.1894 -79.0494 93° East 538 619 28,000 -480 Descending Cleveland Center
04:27PM 42.1942 -78.8456 88° East 547 629 28,000 -60 Level Cleveland Center
04:29PM 42.1994 -78.6483 88° East 533 613 27,900 -840 Descending Cleveland Center
04:30PM 42.2006 -78.4186 90° East 520 598 26,400 -1,320 Descending Cleveland Center
04:31PM 42.2031 -78.2331 89° East 507 583 25,200 -780 Descending Cleveland Center
04:32PM 42.2042 -78.0547 89° East 494 568 24,900 -720 Descending Cleveland Center
04:33PM 42.2072 -77.8783 89° East 481 554 23,800 -1,500 Descending Cleveland Center
04:34PM 42.2083 -77.7083 89° East 467 537 21,900 -1,860 Descending Cleveland Center
04:35PM 42.2089 -77.5456 90° East 446 513 20,000 -2,100 Descending Cleveland Center
04:36PM 42.2106 -77.3589 89° East 425 489 17,600 -1,560 Descending Cleveland Center
04:37PM 42.2119 -77.2097 89° East 410 472 16,900 -420 Descending Cleveland Center
04:38PM 42.2131 -77.0983 89° East 401 461 16,900 -840 Level New York Center
04:39PM 42.2122 -76.9528 90° East 388 447 15,400 -1,920 Descending New York Center
04:40PM 42.2136 -76.8072 89° East 388 447 13,100 -2,040 Descending New York Center
04:41PM 42.2097 -76.6753 92° East 374 430 11,400 -1,860 Descending New York Center
04:42PM 42.2425 -76.5606 69° East 335 386 9,400 -2,220 Descending New York Center
04:43PM 42.2850 -76.4522 62° Northeast 323 372 7,000 -1,800 Descending New York Center
04:44PM 42.3272 -76.3550 60° Northeast 311 358 5,900 -1,020 Descending New York Center
04:45PM 42.3628 -76.2597 63° Northeast 296 341 5,000 -600 Descending New York Center
04:46PM 42.3956 -76.1783 61° Northeast 265 305 4,700 -600 Descending New York Center
04:47PM 42.3961 -76.1222 89° East 246 283 3,900 -720 Descending New York Center
04:48PM 42.3469 -76.1069 167° South 130 150 3,300 -300 Descending New York Center
04:49PM 42.3108 -76.0731 145° Southeast 130 150 3,300  Level New York Center
04:50PM 42.2828 -76.0483 147° Southeast 136 157 3,300 -360 Level New York Center
04:51PM 42.2547 -76.0239 147° Southeast 131 151 2,600 -600 Descending New York Center
04:52PM 42.2206 -75.9958 149° Southeast 131 151 2,200 3,180 Descending New York Center
04:53PM 42.1906 -75.9711 149° Southeast 131 151 9,000 6,780 Climbing New York Center
04:55PM 42.2000 -75.9667 North  Level FlightAware Approximate
05:02PM 42.2084 -75.9796 North  Level Estimated